Airfield :
LOGIN :

Register | Disclaimer

   EN    FR    IT 

 










Legend :    VFR   Marginal VFR   IFR   Intensive IFR   Very Intensive IFR
Visi :
Ceiling :
>= 8 km
>= 3000ft
5 to 8 km
1000 to 3000 ft
1500m to 5 km
500 to 1000 ft
800 to 1500m
200 to 500 ft
< 800m
< 200 ft
Symbols :   Thunderstorms  Fog  Heavy snow  Heavy precipitations  Wind > 20 kt
SIGMETs :     Misc.  Thunderstorms  Icing  Turbulence  Mountain Waves  Volcanic Ashes






- Airport Elevation : 256 ft
- IATA code : KUN


EYKA - Kaunas

CURRENT METAR :
  • 291350Z 18006KT 120V210 9999 SCT036 OVC120 05/M01 Q1004 R08/290095

EXPIRED METARs :
  • 291320Z 21010KT 160V250 9999 FEW030 SCT038 05/M02 Q1005 R08/290095
  • 291250Z 20006KT 160V250 9999 FEW029 SCT035 BKN046 05/M01 Q1005 R08/290095
  • 291220Z 19007KT 150V210 9999 SCT032 BKN054 05/M02 Q1006 R08/290095
  • 291150Z 20008KT 150V250 9999 SCT029 BKN042 05/M01 Q1006 R08/290095
  • 291120Z 19006KT 120V250 9999 FEW026 SCT033 BKN040 05/M01 Q1006 R08/290095

TAF TAF EYKA
Valid from the 29 at 12:00 until the 01 at 12:00 UTC


291100Z 2912/0112 18012KT 7000 SCT015 BKN020
TEMPO 2920/2924 3000 RA BR BKN005 OVC010
TEMPO 0104/0109 3000 SHRA SCT005 BKN015CB



MET'MAP, your aeronautical weather chart ! - Copyright ORBIFLY December 2007 - Disclaimer

ORBIFLY MET'MAP TEAM :

Programming & Development : Alexandra Zaïnal
Concept & original design : Baudouin d'Aumeries
Assistance for programming : Marc-Olivier Méhu
Technical & hardware support : Manuel Goepfert

Contact : metmap@orbifly.com




SOURCES & CREDITS :

   NOAA